Time;durP1;ratioP1;P1;durP2;ratioP2;P2;SDS_P1;SDS_P2;PMS_P1;PMS_P2;Temp;Humidity;BMP_temperature;BMP_pressure;BME280_temperature;BME280_humidity;BME280_pressure;Samples;Min_cycle;Max_cycle;Signal;HPM_P1;HPM_P2
2023/05/26 00:00:53;;;;;;;15.45;11.32;;;;;;;;;;5032623;28;20067;-54
2023/05/26 00:03:19;;;;;;;18.00;13.63;;;;;;;;;;5019872;28;20026;-54
2023/05/26 00:05:45;;;;;;;12.05;10.15;;;;;;;;;;5011641;28;20468;-55
2023/05/26 00:08:11;;;;;;;15.63;13.15;;;;;;;;;;5011958;28;20035;-55
2023/05/26 00:10:37;;;;;;;11.43;9.65;;;;;;;;;;5011805;28;20026;-57
2023/05/26 00:13:04;;;;;;;10.50;9.40;;;;;;;;;;5030140;28;20021;-56
2023/05/26 00:15:30;;;;;;;14.80;11.27;;;;;;;;;;5032417;28;20037;-54
2023/05/26 00:18:01;;;;;;;10.45;8.52;;;;;;;;;;5031812;28;20052;-54
2023/05/26 00:20:27;;;;;;;12.63;9.32;;;;;;;;;;5032055;28;20392;-54
2023/05/26 00:22:53;;;;;;;12.20;9.57;;;;;;;;;;5032308;28;20055;-54
2023/05/26 00:25:20;;;;;;;10.95;9.20;;;;;;;;;;5031362;28;20029;-54
2023/05/26 00:27:46;;;;;;;16.25;11.65;;;;;;;;;;5031679;28;20032;-54
2023/05/26 00:30:12;;;;;;;12.27;9.80;;;;;;;;;;5031795;28;20030;-57
2023/05/26 00:32:38;;;;;;;14.05;10.05;;;;;;;;;;5031617;28;20571;-54
2023/05/26 00:35:04;;;;;;;12.27;10.05;;;;;;;;;;5032044;28;20029;-55
2023/05/26 00:37:31;;;;;;;17.65;13.18;;;;;;;;;;5031631;28;20069;-54
2023/05/26 00:39:57;;;;;;;11.05;9.68;;;;;;;;;;5031324;28;20087;-54
2023/05/26 00:42:23;;;;;;;14.25;10.75;;;;;;;;;;5031766;28;20368;-55
2023/05/26 00:44:51;;;;;;;16.75;11.75;;;;;;;;;;5031902;28;20025;-55
2023/05/26 00:47:17;;;;;;;23.17;18.73;;;;;;;;;;5031473;28;20384;-54
2023/05/26 00:49:43;;;;;;;15.77;11.88;;;;;;;;;;5031560;28;20107;-54
2023/05/26 00:52:09;;;;;;;15.00;10.57;;;;;;;;;;5030048;28;20056;-56
2023/05/26 00:54:35;;;;;;;14.23;10.43;;;;;;;;;;5031354;28;20120;-55
2023/05/26 00:57:02;;;;;;;16.67;10.73;;;;;;;;;;5031535;28;20376;-55
2023/05/26 00:59:28;;;;;;;18.25;12.70;;;;;;;;;;5031217;28;20026;-54
2023/05/26 01:01:55;;;;;;;12.80;10.50;;;;;;;;;;5031028;28;20520;-54
2023/05/26 01:04:21;;;;;;;14.82;11.68;;;;;;;;;;5031175;28;20026;-54
2023/05/26 01:06:49;;;;;;;13.48;10.35;;;;;;;;;;5031030;28;20040;-54
2023/05/26 01:09:15;;;;;;;16.92;11.75;;;;;;;;;;5031062;28;20389;-55
2023/05/26 01:11:47;;;;;;;14.65;11.55;;;;;;;;;;5031457;28;20043;-55
2023/05/26 01:14:23;;;;;;;16.30;10.15;;;;;;;;;;5031290;28;20060;-55
2023/05/26 01:17:11;;;;;;;44.42;31.75;;;;;;;;;;5030638;28;20045;-55
2023/05/26 01:19:37;;;;;;;12.90;10.52;;;;;;;;;;5030850;28;20076;-53
2023/05/26 01:22:15;;;;;;;16.17;10.07;;;;;;;;;;5030975;28;20032;-53
2023/05/26 01:24:44;;;;;;;16.63;9.65;;;;;;;;;;5031234;28;20033;-54
2023/05/26 01:27:24;;;;;;;13.13;11.25;;;;;;;;;;5030786;28;20083;-54
2023/05/26 01:29:50;;;;;;;13.90;10.85;;;;;;;;;;5031036;28;20536;-53
2023/05/26 01:32:16;;;;;;;12.52;9.70;;;;;;;;;;5030845;28;20100;-54
2023/05/26 01:34:42;;;;;;;16.65;11.40;;;;;;;;;;5030804;28;20029;-57
2023/05/26 01:37:08;;;;;;;34.13;21.90;;;;;;;;;;5030435;28;20041;-55
2023/05/26 01:39:35;;;;;;;13.85;10.30;;;;;;;;;;5030638;28;20025;-54
2023/05/26 01:42:07;;;;;;;14.45;10.95;;;;;;;;;;5030493;28;20032;-57
2023/05/26 01:44:38;;;;;;;16.45;11.80;;;;;;;;;;5030534;28;20047;-56
2023/05/26 01:47:05;;;;;;;12.48;10.45;;;;;;;;;;5030501;28;20026;-55
2023/05/26 01:49:33;;;;;;;13.68;11.07;;;;;;;;;;5030601;28;20068;-54
2023/05/26 01:52:01;;;;;;;12.95;11.35;;;;;;;;;;5030325;28;20467;-54
2023/05/26 01:54:28;;;;;;;15.93;11.82;;;;;;;;;;5030105;28;20033;-54
2023/05/26 01:56:54;;;;;;;13.98;10.45;;;;;;;;;;5030236;28;20025;-55
2023/05/26 01:59:24;;;;;;;19.42;14.77;;;;;;;;;;5030199;28;20487;-54
2023/05/26 02:01:50;;;;;;;12.50;10.77;;;;;;;;;;5030238;28;20030;-54
2023/05/26 02:04:16;;;;;;;12.18;10.48;;;;;;;;;;5029945;28;20029;-54
2023/05/26 02:06:46;;;;;;;12.05;9.88;;;;;;;;;;5030413;28;20075;-54
2023/05/26 02:09:12;;;;;;;13.23;10.77;;;;;;;;;;5030240;28;20037;-57
2023/05/26 02:11:38;;;;;;;13.88;9.52;;;;;;;;;;5030248;28;20036;-57
2023/05/26 02:14:04;;;;;;;15.80;10.30;;;;;;;;;;5030131;28;20025;-54
2023/05/26 02:16:32;;;;;;;11.05;9.35;;;;;;;;;;5029726;28;20357;-54
2023/05/26 02:18:58;;;;;;;16.17;11.00;;;;;;;;;;5029531;28;20028;-54
2023/05/26 02:21:24;;;;;;;15.15;10.15;;;;;;;;;;5029974;28;20498;-54
2023/05/26 02:23:50;;;;;;;11.63;9.95;;;;;;;;;;5029460;28;20040;-54
2023/05/26 02:26:17;;;;;;;12.70;10.35;;;;;;;;;;5029574;28;20025;-54
2023/05/26 02:28:43;;;;;;;15.23;10.38;;;;;;;;;;5030102;28;20022;-54
2023/05/26 02:31:09;;;;;;;11.43;9.75;;;;;;;;;;5029593;28;20037;-53
2023/05/26 02:33:40;;;;;;;15.27;11.05;;;;;;;;;;5029468;28;20029;-54
2023/05/26 02:36:07;;;;;;;13.55;10.77;;;;;;;;;;5029221;28;20033;-54
2023/05/26 02:38:33;;;;;;;16.42;11.27;;;;;;;;;;5027950;28;20472;-54
2023/05/26 02:40:59;;;;;;;13.70;10.75;;;;;;;;;;5029166;28;20033;-54
2023/05/26 02:43:26;;;;;;;14.43;10.13;;;;;;;;;;5029058;28;20060;-55
2023/05/26 02:45:52;;;;;;;14.55;11.63;;;;;;;;;;5029375;28;20025;-55
2023/05/26 02:48:18;;;;;;;13.13;10.60;;;;;;;;;;5028971;28;20028;-55
2023/05/26 02:50:44;;;;;;;13.40;11.10;;;;;;;;;;5029284;28;20021;-56
2023/05/26 02:53:10;;;;;;;13.13;10.95;;;;;;;;;;5029159;28;20033;-55
2023/05/26 02:55:38;;;;;;;12.57;10.43;;;;;;;;;;5028813;28;20032;-55
2023/05/26 02:58:04;;;;;;;18.27;11.50;;;;;;;;;;5029069;28;20068;-55
2023/05/26 03:00:30;;;;;;;15.43;11.45;;;;;;;;;;5029392;28;20065;-55
2023/05/26 03:02:56;;;;;;;15.05;11.15;;;;;;;;;;5029033;28;20080;-55
2023/05/26 03:05:22;;;;;;;14.98;12.32;;;;;;;;;;5029481;28;20025;-55
2023/05/26 03:07:48;;;;;;;17.70;12.20;;;;;;;;;;5028699;28;20529;-56
2023/05/26 03:10:14;;;;;;;14.15;11.68;;;;;;;;;;5028821;28;20444;-55
2023/05/26 03:12:40;;;;;;;13.77;11.30;;;;;;;;;;5029052;28;20017;-54
2023/05/26 03:15:07;;;;;;;22.00;16.60;;;;;;;;;;5028013;28;20475;-55
2023/05/26 03:17:33;;;;;;;15.73;12.27;;;;;;;;;;5028830;28;20026;-55
2023/05/26 03:19:59;;;;;;;30.88;19.55;;;;;;;;;;5028888;28;20025;-57
2023/05/26 03:22:25;;;;;;;17.30;13.50;;;;;;;;;;5028051;28;20384;-55
2023/05/26 03:24:51;;;;;;;12.88;10.35;;;;;;;;;;5028794;28;20536;-55
2023/05/26 03:27:18;;;;;;;19.77;15.00;;;;;;;;;;5029089;28;20025;-55
2023/05/26 03:29:44;;;;;;;17.42;12.27;;;;;;;;;;5029084;28;20119;-55
2023/05/26 03:32:10;;;;;;;20.17;14.13;;;;;;;;;;5028902;28;20022;-55
2023/05/26 03:34:39;;;;;;;15.82;11.00;;;;;;;;;;5028747;28;20120;-58
2023/05/26 03:37:06;;;;;;;15.13;11.93;;;;;;;;;;5028612;28;20523;-55
2023/05/26 03:39:32;;;;;;;25.15;17.27;;;;;;;;;;5028818;28;20037;-55
2023/05/26 03:41:59;;;;;;;39.03;24.50;;;;;;;;;;5029003;28;20048;-55
2023/05/26 03:44:25;;;;;;;17.77;14.52;;;;;;;;;;5029221;28;20032;-55
2023/05/26 03:46:51;;;;;;;17.23;12.68;;;;;;;;;;5028803;28;20025;-54
2023/05/26 03:49:17;;;;;;;22.73;16.05;;;;;;;;;;5028647;28;20033;-56
2023/05/26 03:51:43;;;;;;;25.27;16.17;;;;;;;;;;5014661;28;20088;-58
2023/05/26 03:54:09;;;;;;;27.75;18.40;;;;;;;;;;5007941;28;20112;-54
2023/05/26 03:56:35;;;;;;;63.60;35.83;;;;;;;;;;5007808;28;20033;-55
2023/05/26 03:59:02;;;;;;;24.02;16.00;;;;;;;;;;5008334;28;20025;-55
2023/05/26 04:01:28;;;;;;;15.32;12.20;;;;;;;;;;5011405;28;20025;-56
2023/05/26 04:03:54;;;;;;;25.20;16.77;;;;;;;;;;5028748;28;20040;-54
2023/05/26 04:06:22;;;;;;;18.23;13.85;;;;;;;;;;5028642;28;20025;-55
2023/05/26 04:08:48;;;;;;;16.77;12.60;;;;;;;;;;5028323;28;20033;-57
2023/05/26 04:11:15;;;;;;;19.27;12.57;;;;;;;;;;5028623;28;20021;-55
2023/05/26 04:13:41;;;;;;;19.35;12.80;;;;;;;;;;5028936;28;20030;-54
2023/05/26 04:16:08;;;;;;;16.70;12.18;;;;;;;;;;5028241;28;20021;-58
2023/05/26 04:18:36;;;;;;;15.10;12.27;;;;;;;;;;5028851;28;20411;-56
2023/05/26 04:21:02;;;;;;;20.08;14.98;;;;;;;;;;5028491;28;20036;-56
2023/05/26 04:23:28;;;;;;;15.75;12.07;;;;;;;;;;5028566;28;20116;-54
2023/05/26 04:25:55;;;;;;;17.13;12.80;;;;;;;;;;5029341;28;20021;-54
2023/05/26 04:28:22;;;;;;;18.77;15.35;;;;;;;;;;5032359;28;20103;-55
2023/05/26 04:30:48;;;;;;;18.27;12.70;;;;;;;;;;5032126;28;20472;-55
2023/05/26 04:33:15;;;;;;;16.63;13.07;;;;;;;;;;5032124;28;20025;-54
2023/05/26 04:35:41;;;;;;;14.20;12.38;;;;;;;;;;5031766;28;20035;-55
2023/05/26 04:38:07;;;;;;;15.48;12.40;;;;;;;;;;5031360;28;20067;-55
2023/05/26 04:40:34;;;;;;;13.80;12.27;;;512.20;2380.80;;;;;;5031648;28;20037;-58
2023/05/26 04:43:00;;;;;;;13.70;10.65;;;512.20;2380.80;;;;;;5032334;28;20033;-54
2023/05/26 04:45:27;;;;;;;17.02;11.75;;;512.80;2380.80;;;;;;5031563;28;20537;-56
2023/05/26 04:47:54;;;;;;;17.25;11.50;;;538.30;2406.40;;;;;;5032002;28;20056;-58
2023/05/26 04:50:22;;;;;;;14.50;12.25;;;538.50;2406.40;;;;;;5031416;28;20071;-54
2023/05/26 04:52:49;;;;;;;18.70;14.50;;;563.30;2432.00;;;;;;5031363;28;20361;-55
2023/05/26 04:55:15;;;;;;;12.32;11.00;;;563.30;2432.00;;;;;;5031075;28;20522;-57
2023/05/26 04:57:43;;;;;;;13.43;11.68;;;538.50;2406.40;;;;;;5030888;28;20471;-55
2023/05/26 05:00:10;;;;;;;16.25;12.43;;;538.30;2406.40;;;;;;5031219;28;20049;-55
2023/05/26 05:02:36;;;;;;;16.65;12.77;;;538.00;2406.40;;;;;;5031564;28;20021;-55
2023/05/26 05:05:03;;;;;;;14.57;11.93;;;537.70;2406.40;;;;;;5031518;28;20391;-54
2023/05/26 05:07:28;;;;;;;18.58;16.58;;;512.70;2380.80;;;;;;5030918;28;20471;-54
2023/05/26 05:09:54;;;;;;;15.75;13.77;;;512.60;2380.80;;;;;;5031069;28;20091;-58
2023/05/26 05:12:20;;;;;;;17.45;14.73;;;512.30;2380.80;;;;;;5031375;28;20022;-58
2023/05/26 05:14:46;;;;;;;14.75;13.02;;;512.20;2380.80;;;;;;5031502;28;20108;-56
2023/05/26 05:17:12;;;;;;;49.10;44.33;;;512.20;2380.80;;;;;;5031389;28;20420;-56
2023/05/26 05:19:38;;;;;;;21.58;18.40;;;512.10;2380.80;;;;;;5030750;28;20026;-55
2023/05/26 05:22:03;;;;;;;15.63;13.95;;;512.00;2380.80;;;;;;5031057;28;20383;-55
2023/05/26 05:24:29;;;;;;;13.98;12.48;;;512.00;2380.80;;;;;;5030731;28;20017;-55
2023/05/26 05:26:55;;;;;;;24.80;22.23;;;512.10;2380.80;;;;;;5030953;28;20148;-55
2023/05/26 05:29:20;;;;;;;16.48;11.88;;;512.10;2380.80;;;;;;5030819;28;20514;-57
2023/05/26 05:31:46;;;;;;;14.82;11.63;;;512.10;2380.80;;;;;;5031097;28;20029;-56
2023/05/26 05:34:12;;;;;;;15.23;11.65;;;512.20;2380.80;;;;;;5030347;28;20049;-56
2023/05/26 05:36:37;;;;;;;17.38;13.20;;;512.10;2380.80;;;;;;5013052;28;20121;-58
2023/05/26 05:39:03;;;;;;;13.57;10.73;;;512.20;2380.80;;;;;;5013782;28;20034;-59
2023/05/26 05:41:29;;;;;;;17.33;12.90;;;512.20;2380.80;;;;;;5014752;28;20540;-58
2023/05/26 05:43:56;;;;;;;16.35;12.52;;;512.30;2380.80;;;;;;5014574;28;20022;-59
2023/05/26 05:46:25;;;;;;;14.23;12.15;;;512.30;2380.80;;;;;;5014875;28;20028;-64
2023/05/26 05:52:15;;;;;;;16.05;13.93;;;512.20;2380.80;;;;;;5014639;28;20057;-62
2023/05/26 05:54:41;;;;;;;13.90;12.38;;;512.10;2380.80;;;;;;5014537;28;20053;-59
2023/05/26 05:57:07;;;;;;;15.48;12.55;;;512.20;2380.80;;;;;;5014635;28;20018;-67
2023/05/26 05:59:33;;;;;;;13.85;11.80;;;512.10;2380.80;;;;;;5014385;28;20026;-59
2023/05/26 06:01:59;;;;;;;15.52;13.93;;;512.20;2380.80;;;;;;5014143;28;20537;-67
2023/05/26 06:07:46;;;;;;;14.30;12.80;;;512.30;2380.80;;;;;;5014076;28;20494;-60
2023/05/26 06:10:12;;;;;;;14.82;13.20;;;512.50;2380.80;;;;;;5014332;28;20038;-58
2023/05/26 06:12:37;;;;;;;15.20;13.60;;;512.90;2380.80;;;;;;5014263;28;20425;-60
2023/05/26 06:15:03;;;;;;;14.60;13.02;;;538.10;2406.40;;;;;;5014257;28;20018;-59
2023/05/26 06:17:29;;;;;;;14.90;12.75;;;563.40;2432.00;;;;;;5013912;28;20025;-61
2023/05/26 06:23:17;;;;;;;17.27;15.48;;;564.00;2432.00;;;;;;5014065;28;20037;-60
2023/05/26 06:25:42;;;;;;;14.50;13.07;;;563.60;2432.00;;;;;;5014150;28;20030;-60
2023/05/26 06:28:08;;;;;;;15.00;13.40;;;563.40;2432.00;;;;;;5013978;28;20045;-61
2023/05/26 06:30:34;;;;;;;16.10;13.35;;;563.20;2432.00;;;;;;5014071;28;20026;-60
2023/05/26 06:32:59;;;;;;;14.70;12.80;;;563.20;2432.00;;;;;;5013987;28;20068;-60
2023/05/26 06:35:25;;;;;;;15.13;13.40;;;563.20;2432.00;;;;;;5013766;28;20492;-60
2023/05/26 06:37:51;;;;;;;15.15;13.55;;;563.30;2432.00;;;;;;5013432;28;20050;-60
2023/05/26 06:40:17;;;;;;;16.67;14.88;;;563.20;2432.00;;;;;;5013416;28;20034;-61
2023/05/26 06:42:42;;;;;;;16.25;13.80;;;563.20;2432.00;;;;;;5013846;28;20033;-62
2023/05/26 06:45:08;;;;;;;19.08;14.73;;;538.40;2406.40;;;;;;5012528;28;20054;-60
2023/05/26 06:47:34;;;;;;;16.27;14.00;;;538.40;2406.40;;;;;;5013403;28;20025;-60
2023/05/26 06:53:22;;;;;;;16.58;14.40;;;538.10;2406.40;;;;;;5013390;28;20033;-64
2023/05/26 06:55:47;;;;;;;18.58;13.85;;;538.20;2406.40;;;;;;5013245;28;20022;-63
2023/05/26 06:58:13;;;;;;;16.95;15.15;;;538.20;2406.40;;;;;;5013327;28;20034;-59
2023/05/26 07:00:54;;;;;;;16.55;14.77;;;538.20;2406.40;;;;;;5013701;28;20040;-61
2023/05/26 07:03:20;;;;;;;15.13;13.52;;;538.30;2406.40;;;;;;5013542;28;20478;-60
2023/05/26 07:05:46;;;;;;;19.02;14.73;;;538.20;2406.40;;;;;;5013101;28;20038;-59
2023/05/26 07:08:11;;;;;;;15.93;13.80;;;538.50;2406.40;;;;;;5013432;28;20121;-60
2023/05/26 07:10:37;;;;;;;17.02;12.90;;;563.30;2432.00;;;;;;5013380;28;20033;-59
2023/05/26 07:13:03;;;;;;;15.52;13.98;;;563.50;2432.00;;;;;;5013084;28;20017;-60
2023/05/26 07:15:29;;;;;;;19.77;15.68;;;563.80;2432.00;;;;;;5013383;28;20376;-60
2023/05/26 07:17:54;;;;;;;17.42;15.10;;;614.40;2432.00;;;;;;5013387;28;20018;-60
2023/05/26 07:23:43;;;;;;;14.82;13.02;;;640.00;2432.00;;;;;;5013316;28;20375;-60
2023/05/26 07:26:09;;;;;;;14.85;13.35;;;666.00;2432.00;;;;;;5013254;28;20037;-61
2023/05/26 07:28:35;;;;;;;14.68;13.27;;;742.50;2227.20;;;;;;5012958;28;20248;-60
2023/05/26 07:31:01;;;;;;;15.65;13.73;;;742.40;2150.40;;;;;;5013236;28;20026;-62
2023/05/26 07:33:26;;;;;;;14.45;13.02;;;717.00;2201.60;;;;;;5013163;28;20468;-69
2023/05/26 07:35:52;;;;;;;15.38;13.88;;;692.10;2201.60;;;;;;5013141;28;20029;-63
2023/05/26 07:38:18;;;;;;;15.95;13.98;;;743.00;2073.60;;;;;;5012913;28;20085;-69
2023/05/26 07:40:44;;;;;;;15.63;13.30;;;793.80;1971.20;;;;;;5012874;28;20041;-60
2023/05/26 07:43:12;;;;;;;15.57;13.38;;;743.00;2022.40;;;;;;5013084;28;20026;-60
2023/05/26 07:45:38;;;;;;;14.90;13.32;;;716.80;2150.40;;;;;;5012792;28;20464;-60
2023/05/26 07:48:03;;;;;;;17.38;14.45;;;691.90;2150.40;;;;;;5012731;28;20026;-67
2023/05/26 07:50:30;;;;;;;17.35;14.27;;;666.30;2278.40;;;;;;5024460;28;20036;-60
2023/05/26 07:52:56;;;;;;;15.85;14.25;;;640.50;2380.80;;;;;;5029084;28;20018;-60
2023/05/26 07:55:22;;;;;;;19.95;14.82;;;640.10;2432.00;;;;;;5028689;28;20039;-60
2023/05/26 07:57:48;;;;;;;15.48;13.77;;;640.10;2432.00;;;;;;5028877;28;20051;-59
2023/05/26 08:00:14;;;;;;;15.93;14.15;;;742.40;2201.60;;;;;;5028540;28;20040;-60
2023/05/26 08:02:40;;;;;;;15.48;14.02;;;819.40;1920.00;;;;;;5032515;28;20021;-61
2023/05/26 08:05:06;;;;;;;15.55;14.10;;;870.50;1740.80;;;;;;5032073;28;20083;-60
2023/05/26 08:07:32;;;;;;;15.55;13.75;;;;;;;;;;5032422;28;20049;-66
2023/05/26 08:09:58;;;;;;;15.70;14.20;;;896.60;1612.80;;;;;;5032246;28;20033;-60
2023/05/26 08:12:23;;;;;;;16.98;15.27;;;922.30;1561.60;;;;;;5032312;28;20032;-64
2023/05/26 08:14:49;;;;;;;14.82;13.38;;;896.60;1561.60;;;;;;5032585;28;20037;-60
2023/05/26 08:17:15;;;;;;;15.20;13.70;;;845.40;1689.60;;;;;;5031426;28;20028;-59
2023/05/26 08:19:41;;;;;;;15.57;13.95;;;794.10;1843.20;;;;;;5032196;28;20072;-61
2023/05/26 08:22:07;;;;;;;16.02;14.32;;;768.60;1868.80;;;;;;5031584;28;20025;-59
2023/05/26 08:24:33;;;;;;;16.95;15.30;;;742.90;1945.60;;;;;;5032137;28;20045;-67
2023/05/26 08:26:58;;;;;;;15.18;13.80;;;742.60;2022.40;;;;;;5032128;28;20029;-59
2023/05/26 08:29:24;;;;;;;16.33;14.75;;;717.30;2048.00;;;;;;5032256;28;20021;-64
2023/05/26 08:31:50;;;;;;;19.23;15.60;;;717.60;2073.60;;;;;;5032100;28;20028;-59
2023/05/26 08:34:16;;;;;;;17.88;15.20;;;717.20;2124.80;;;;;;5032192;28;20352;-59
2023/05/26 08:36:42;;;;;;;17.17;15.43;;;717.40;2073.60;;;;;;5031568;28;20140;-61
2023/05/26 08:39:08;;;;;;;16.02;14.45;;;717.30;2124.80;;;;;;5031747;28;20791;-68
2023/05/26 08:41:46;;;;;;;24.02;15.90;;;717.10;2201.60;;;;;;5032132;28;20025;-66
2023/05/26 08:44:15;;;;;;;17.83;15.52;;;717.20;2124.80;;;;;;5031753;28;20022;-67
2023/05/26 08:46:43;;;;;;;17.10;15.35;;;716.80;2176.00;;;;;;5031947;28;20037;-60
2023/05/26 08:49:10;;;;;;;16.70;14.93;;;692.10;2124.80;;;;;;5031487;28;20410;-59
2023/05/26 08:51:44;;;;;;;17.42;14.45;;;691.90;2176.00;;;;;;5031448;28;20057;-60
2023/05/26 08:54:10;;;;;;;15.43;13.93;;;691.90;2201.60;;;;;;5031737;28;20364;-58
2023/05/26 08:56:36;;;;;;;16.42;14.85;;;716.80;2252.80;;;;;;5031395;28;20032;-60
2023/05/26 08:59:04;;;;;;;16.80;14.57;;;716.90;2227.20;;;;;;5031693;28;20133;-60
2023/05/26 09:01:30;;;;;;;16.52;14.82;;;692.10;2252.80;;;;;;5030769;28;20120;-59
2023/05/26 09:03:55;;;;;;;17.33;15.63;;;691.70;2252.80;;;;;;5031113;28;20049;-59
2023/05/26 09:06:21;;;;;;;17.85;15.20;;;691.60;2278.40;;;;;;5031182;28;20511;-66
2023/05/26 09:08:47;;;;;;;17.48;15.23;;;691.30;2227.20;;;;;;5031459;28;20033;-59
2023/05/26 09:11:23;;;;;;;15.55;13.98;;;691.70;2278.40;;;;;;5031526;28;20021;-59
2023/05/26 09:13:55;;;;;;;14.88;13.48;;;691.70;2252.80;;;;;;5029948;28;20026;-60
2023/05/26 09:16:26;;;;;;;15.63;14.05;;;691.90;2252.80;;;;;;5031257;28;20025;-69
2023/05/26 09:19:00;;;;;;;15.63;14.13;;;691.80;2227.20;;;;;;5031112;28;20026;-59
2023/05/26 09:21:27;;;;;;;19.17;14.43;;;691.60;2201.60;;;;;;5030782;28;20034;-64
2023/05/26 09:23:57;;;;;;;18.65;12.75;;;691.30;2227.20;;;;;;5031007;28;20028;-60
2023/05/26 09:26:34;;;;;;;15.43;13.82;;;691.20;2278.40;;;;;;5030983;28;20026;-59
2023/05/26 09:29:01;;;;;;;13.90;12.15;;;691.20;2304.00;;;;;;5030674;28;20414;-67
2023/05/26 09:31:48;;;;;;;13.23;11.82;;;666.50;2278.40;;;;;;5030778;28;20040;-59
2023/05/26 09:34:15;;;;;;;14.02;12.63;;;691.20;2278.40;;;;;;5030761;28;20022;-59
2023/05/26 09:36:41;;;;;;;14.73;12.68;;;691.20;2278.40;;;;;;5029992;28;20491;-65
2023/05/26 09:39:12;;;;;;;14.40;12.70;;;691.20;2329.60;;;;;;5030770;28;20041;-59
2023/05/26 09:41:43;;;;;;;14.98;12.90;;;691.20;2380.80;;;;;;5030409;28;20069;-60
2023/05/26 09:44:10;;;;;;;12.85;11.45;;;691.30;2329.60;;;;;;5030603;28;20018;-59
2023/05/26 09:46:37;;;;;;;13.95;12.57;;;691.60;2355.20;;;;;;5030709;28;20033;-66
2023/05/26 09:49:18;;;;;;;14.05;12.27;;;691.40;2329.60;;;;;;5030973;28;20030;-59
2023/05/26 09:51:49;;;;;;;14.88;13.38;;;666.50;2278.40;;;;;;5030434;28;20030;-67
2023/05/26 09:54:16;;;;;;;14.98;11.45;;;666.40;2304.00;;;;;;5030509;28;20438;-61
2023/05/26 09:57:01;;;;;;;13.02;11.55;;;691.20;2252.80;;;;;;5029918;28;20486;-62
2023/05/26 09:59:38;;;;;;;13.95;11.30;;;666.50;2278.40;;;;;;5029974;28;20029;-58
2023/05/26 10:02:26;;;;;;;11.98;10.63;;;666.50;2278.40;;;;;;5030383;28;20419;-59
2023/05/26 10:04:53;;;;;;;13.75;12.13;;;666.50;2278.40;;;;;;5029904;28;20030;-63
2023/05/26 10:07:20;;;;;;;11.90;10.70;;;691.20;2227.20;;;;;;5029834;28;20021;-59
2023/05/26 10:09:57;;;;;;;12.57;10.77;;;691.60;2252.80;;;;;;5029589;28;20065;-61
2023/05/26 10:12:33;;;;;;;11.40;10.32;;;691.80;2227.20;;;;;;5030193;28;20037;-68
2023/05/26 10:14:59;;;;;;;11.65;10.45;;;691.80;2176.00;;;;;;5029809;28;20053;-60
2023/05/26 10:17:25;;;;;;;13.93;11.63;;;692.10;2150.40;;;;;;5029579;28;20036;-60
2023/05/26 10:19:53;;;;;;;15.10;12.10;;;716.90;2176.00;;;;;;5029533;28;20040;-61
2023/05/26 10:22:23;;;;;;;13.02;11.70;;;717.00;2150.40;;;;;;5029471;28;20036;-64
2023/05/26 10:25:02;;;;;;;13.82;11.88;;;716.90;2150.40;;;;;;5029272;28;20034;-60
2023/05/26 10:27:48;;;;;;;14.13;10.65;;;717.40;2124.80;;;;;;5029178;28;20029;-60
2023/05/26 10:30:17;;;;;;;13.15;11.77;;;742.50;2124.80;;;;;;5029947;28;20071;-60
2023/05/26 10:32:54;;;;;;;11.48;10.38;;;742.70;2150.40;;;;;;5030202;28;20036;-60
2023/05/26 10:35:30;;;;;;;12.85;11.68;;;717.70;2048.00;;;;;;5029393;28;20022;-60
2023/05/26 10:38:13;;;;;;;13.02;11.73;;;717.60;2099.20;;;;;;5027929;28;20061;-60
2023/05/26 10:40:43;;;;;;;14.90;11.77;;;742.40;2099.20;;;;;;5028950;28;20495;-69
2023/05/26 10:43:18;;;;;;;12.98;11.70;;;742.40;2073.60;;;;;;5029525;28;20034;-60
2023/05/26 10:46:05;;;;;;;12.38;11.10;;;742.60;2099.20;;;;;;5029819;28;20367;-59
2023/05/26 10:48:54;;;;;;;14.07;11.40;;;742.50;2048.00;;;;;;5029090;28;20029;-66
2023/05/26 10:51:31;;;;;;;13.68;10.95;;;742.60;2099.20;;;;;;5029142;28;20030;-60
2023/05/26 10:53:57;;;;;;;13.00;11.23;;;742.60;2022.40;;;;;;5029041;28;20043;-60
2023/05/26 10:56:50;;;;;;;12.60;11.10;;;742.60;2048.00;;;;;;5029401;28;20027;-60
2023/05/26 10:59:30;;;;;;;13.02;11.65;;;742.60;2048.00;;;;;;5028633;28;20057;-63
2023/05/26 11:02:04;;;;;;;13.32;11.82;;;742.70;2048.00;;;;;;5029057;28;20037;-60
2023/05/26 11:04:44;;;;;;;14.30;12.20;;;742.40;2048.00;;;;;;5028683;28;20010;-59
2023/05/26 11:07:26;;;;;;;15.15;13.02;;;717.50;2048.00;;;;;;5028401;28;20030;-61
2023/05/26 11:10:10;;;;;;;15.13;12.88;;;717.20;2048.00;;;;;;5017518;28;20037;-60
2023/05/26 11:12:54;;;;;;;14.65;13.05;;;692.10;2099.20;;;;;;5028902;28;20018;-59
2023/05/26 11:15:31;;;;;;;15.23;11.95;;;691.80;2124.80;;;;;;5028805;28;20095;-68
2023/05/26 11:18:05;;;;;;;14.07;11.18;;;691.60;2150.40;;;;;;5028800;28;20026;-59
2023/05/26 11:20:32;;;;;;;14.38;12.82;;;691.60;2176.00;;;;;;5028565;28;20068;-61
2023/05/26 11:22:58;;;;;;;13.57;12.18;;;691.80;2150.40;;;;;;5028811;28;20028;-59
2023/05/26 11:25:25;;;;;;;18.10;12.13;;;691.90;2124.80;;;;;;5028784;28;20021;-59
2023/05/26 11:27:51;;;;;;;14.13;12.63;;;691.90;2150.40;;;;;;5029362;28;20029;-59
2023/05/26 11:30:19;;;;;;;12.75;11.45;;;691.50;2201.60;;;;;;5028875;28;20498;-68
2023/05/26 11:32:49;;;;;;;13.80;11.60;;;666.40;2227.20;;;;;;5028622;28;20025;-61
2023/05/26 11:35:25;;;;;;;14.50;12.30;;;666.20;2252.80;;;;;;5028931;28;20029;-60
2023/05/26 11:37:51;;;;;;;13.13;11.27;;;666.00;2304.00;;;;;;5032578;28;20457;-60
2023/05/26 11:40:17;;;;;;;12.90;10.38;;;666.00;2252.80;;;;;;5033046;28;20383;-59
2023/05/26 11:42:51;;;;;;;13.95;11.13;;;666.00;2278.40;;;;;;5032448;28;20026;-59
2023/05/26 11:45:17;;;;;;;17.05;10.77;;;665.70;2278.40;;;;;;5033133;28;20021;-60
2023/05/26 11:47:43;;;;;;;15.20;10.13;;;665.60;2329.60;;;;;;5032876;28;20076;-59
2023/05/26 11:50:11;;;;;;;14.73;11.23;;;640.90;2329.60;;;;;;5032887;28;20116;-60
2023/05/26 11:52:44;;;;;;;14.40;11.38;;;665.80;2304.00;;;;;;5032551;28;20021;-59
2023/05/26 11:55:10;;;;;;;;;;;665.90;2278.40;;;;;;5033060;28;20463;-59
2023/05/26 11:57:36;;;;;;;11.48;9.73;;;666.40;2278.40;;;;;;5032872;28;20008;-60
2023/05/26 12:00:09;;;;;;;11.57;9.43;;;691.20;2227.20;;;;;;5032342;28;20072;-60
2023/05/26 12:02:38;;;;;;;10.88;9.43;;;691.80;2176.00;;;;;;5032707;28;20057;-59
2023/05/26 12:05:25;;;;;;;12.20;9.75;;;716.90;2201.60;;;;;;5032488;28;20379;-59
2023/05/26 12:08:05;;;;;;;13.65;9.88;;;716.80;2150.40;;;;;;5032321;28;20119;-59
2023/05/26 12:10:31;;;;;;;13.52;9.43;;;691.70;2176.00;;;;;;5032389;28;20079;-58
2023/05/26 12:12:57;;;;;;;14.35;12.60;;;666.30;2278.40;;;;;;5032095;28;20033;-60
2023/05/26 12:15:24;;;;;;;15.73;13.70;;;665.60;2432.00;;;;;;5032575;28;20044;-59
2023/05/26 12:17:55;;;;;;;23.67;15.35;;;640.60;2432.00;;;;;;5032085;28;20108;-64
2023/05/26 12:20:22;;;;;;;17.45;13.43;;;640.50;2432.00;;;;;;5032193;28;20056;-61
2023/05/26 12:23:01;;;;;;;19.73;14.45;;;640.20;2432.00;;;;;;5032017;28;20064;-59
2023/05/26 12:25:32;;;;;;;18.58;13.27;;;640.00;2432.00;;;;;;5018080;28;20038;-59
2023/05/26 12:27:58;;;;;;;16.25;12.90;;;615.10;2432.00;;;;;;5023066;28;20038;-69
2023/05/26 12:30:28;;;;;;;18.73;12.15;;;614.80;2432.00;;;;;;5023896;28;20025;-60
2023/05/26 12:32:54;;;;;;;17.50;12.77;;;614.70;2432.00;;;;;;5029601;28;20029;-64
2023/05/26 12:35:19;;;;;;;15.85;12.75;;;589.70;2432.00;;;;;;5030304;28;20036;-58
2023/05/26 12:37:45;;;;;;;17.77;14.00;;;589.70;2432.00;;;;;;5029213;28;20104;-61
2023/05/26 12:40:13;;;;;;;12.05;8.23;;;589.70;2432.00;;;;;;5029774;28;20041;-58
2023/05/26 12:42:40;;;;;;;12.65;7.32;;;589.30;2432.00;;;;;;5030449;28;20022;-65
2023/05/26 12:45:06;;;;;;;13.98;8.40;;;588.90;2432.00;;;;;;5030440;28;20017;-59
2023/05/26 12:47:32;;;;;;;10.23;7.43;;;563.90;2432.00;;;;;;5027362;28;20445;-58
2023/05/26 12:49:58;;;;;;;13.68;8.32;;;563.60;2432.00;;;;;;5009616;28;20053;-57
2023/05/26 12:52:24;;;;;;;12.23;8.55;;;563.70;2432.00;;;;;;5009675;28;20029;-61
2023/05/26 12:54:50;;;;;;;13.00;9.98;;;563.60;2432.00;;;;;;5017838;28;20090;-57
2023/05/26 12:57:15;;;;;;;12.38;8.82;;;563.80;2432.00;;;;;;5029050;28;20033;-58
2023/05/26 12:59:41;;;;;;;8.75;7.82;;;563.70;2432.00;;;;;;5013732;28;20352;-59
2023/05/26 13:02:08;;;;;;;8.65;6.65;;;563.50;2432.00;;;;;;5018130;28;20030;-58
2023/05/26 13:04:35;;;;;;;8.80;6.70;;;563.30;2432.00;;;;;;5012593;28;20060;-58
2023/05/26 13:07:01;;;;;;;15.38;7.55;;;538.30;2406.40;;;;;;5021841;28;20105;-58